Belvidere, Illinois
Current Conditions -  °F | °C
As of 3:54 AM on Tuesday 21 Oct 2014 (Local Time) from KRFD Reporting Station
Few Clouds Few Clouds  
Wind Chill: 42°   Ceiling: Unl
Heat Index: 45°   Visibility: 10mi
Dew Point: 40°   Wind: 6mph
Humidity: 82%   Direction: 340°NNW
Pressure: 30.08"   Gusts: NA
Location:  42.26°N, 88.84°W
Report Text: KRFD 210854Z 34005KT 10SM FEW044 07/04 A3008 RMK AO2 SLP185 T00720044 51010
Loading
Personal Weather Stations






























Interactive Weather Map
Tropical Storm Tracking
New forecast layout! Learn more

10-Day Weather Forecast

Advertisements
Track Severe Weather on mobile